Time;durP1;ratioP1;P1;durP2;ratioP2;P2;SDS_P1;SDS_P2;PMS_P1;PMS_P2;Temp;Humidity;BMP_temperature;BMP_pressure;BME280_temperature;BME280_humidity;BME280_pressure;Samples;Min_cycle;Max_cycle;Signal;HPM_P1;HPM_P2
2021/06/23 00:00:53;;;;;;;23.67;5.92;;;;;;;18.90;78.38;95550.29;1738589;81;21061;-60
2021/06/23 00:03:20;;;;;;;18.25;5.87;;;;;;;18.87;77.98;95556.66;1738035;81;21477;-60
2021/06/23 00:05:46;;;;;;;15.55;5.60;;;;;;;18.85;78.12;95555.90;1749256;81;21035;-60
2021/06/23 00:08:13;;;;;;;12.10;5.67;;;;;;;18.86;78.12;95560.29;1753092;81;21038;-59
2021/06/23 00:10:40;;;;;;;16.37;5.83;;;;;;;18.88;77.74;95562.90;1736496;81;21071;-59
2021/06/23 00:13:08;;;;;;;12.15;6.00;;;;;;;18.86;77.92;95563.44;1738714;81;21523;-59
2021/06/23 00:15:37;;;;;;;13.88;7.08;;;;;;;18.67;78.10;95563.03;1738932;81;21057;-60
2021/06/23 00:18:05;;;;;;;16.20;7.00;;;;;;;18.53;78.84;95569.05;1733771;81;21046;-59
2021/06/23 00:20:33;;;;;;;13.28;6.40;;;;;;;18.31;79.98;95567.91;1753028;81;21030;-59
2021/06/23 00:23:00;;;;;;;14.18;7.00;;;;;;;18.23;79.53;95567.91;1747073;81;21085;-59
2021/06/23 00:25:29;;;;;;;15.55;6.22;;;;;;;18.21;79.36;95573.80;1739043;81;21018;-61
2021/06/23 00:27:55;;;;;;;12.47;5.92;;;;;;;18.20;79.48;95576.08;1745609;81;21022;-60
2021/06/23 00:30:23;;;;;;;10.25;5.55;;;;;;;18.16;79.73;95564.66;1740994;81;21023;-60
2021/06/23 00:32:53;;;;;;;12.33;5.55;;;;;;;18.11;80.61;95568.89;1759350;81;21053;-59
2021/06/23 00:35:20;;;;;;;16.85;6.20;;;;;;;18.06;80.88;95569.58;1747072;81;21024;-60
2021/06/23 00:37:47;;;;;;;15.58;6.50;;;;;;;18.05;80.94;95569.20;1742164;81;21039;-60
2021/06/23 00:40:15;;;;;;;14.38;6.10;;;;;;;18.11;80.96;95568.03;1735223;81;21074;-60
2021/06/23 00:42:43;;;;;;;15.48;6.28;;;;;;;18.14;80.78;95573.22;1755597;81;21499;-59
2021/06/23 00:45:13;;;;;;;17.17;5.97;;;;;;;18.16;80.61;95571.34;1737771;81;21018;-60
2021/06/23 00:47:45;;;;;;;12.70;5.85;;;;;;;18.21;80.32;95573.80;1744957;81;21074;-60
2021/06/23 00:50:17;;;;;;;12.78;5.35;;;;;;;18.25;80.51;95572.23;1746991;81;21015;-59
2021/06/23 00:52:46;;;;;;;14.30;5.45;;;;;;;18.26;80.05;95567.75;1752507;81;21069;-60
2021/06/23 00:55:20;;;;;;;10.85;5.05;;;;;;;18.31;79.78;95569.73;1742927;81;21085;-60
2021/06/23 00:57:44;;;;;;;12.03;5.75;;;;;;;18.25;79.39;95568.70;1716685;81;21516;-60
2021/06/23 01:00:12;;;;;;;14.75;6.05;;;;;;;18.07;79.98;95575.34;1741700;81;21039;-59
2021/06/23 01:02:39;;;;;;;12.88;5.33;;;;;;;18.05;80.07;95579.87;1744556;81;21027;-60
2021/06/23 01:05:09;;;;;;;14.58;5.05;;;;;;;17.94;80.11;95581.73;1740385;81;21040;-59
2021/06/23 01:07:37;;;;;;;13.32;5.37;;;;;;;17.90;80.85;95584.14;1727581;81;21034;-59
2021/06/23 01:10:05;;;;;;;9.85;5.47;;;;;;;17.90;81.02;95584.14;1750326;81;21017;-59
2021/06/23 01:12:47;;;;;;;12.18;5.35;;;;;;;18.01;80.98;95578.76;1738034;81;21014;-60
2021/06/23 01:15:15;;;;;;;13.65;5.45;;;;;;;17.99;80.84;95569.95;1712429;81;21565;-59
2021/06/23 01:17:42;;;;;;;13.03;5.75;;;;;;;17.85;80.84;95563.48;1737154;82;21069;-59
2021/06/23 01:20:12;;;;;;;13.50;6.05;;;;;;;17.91;80.79;95563.65;1737505;81;21015;-59
2021/06/23 01:22:43;;;;;;;17.48;5.45;;;;;;;17.90;80.58;95564.60;1732646;81;21037;-59
2021/06/23 01:25:14;;;;;;;12.23;5.42;;;;;;;17.97;80.63;95557.14;1738379;81;21015;-60
2021/06/23 01:27:45;;;;;;;16.52;6.08;;;;;;;18.03;80.27;95554.20;1714728;81;21026;-59
2021/06/23 01:30:15;;;;;;;13.32;5.30;;;;;;;18.06;80.01;95544.70;1737738;81;21022;-59
2021/06/23 01:32:47;;;;;;;11.90;5.60;;;;;;;18.13;79.93;95545.66;1739538;81;21025;-60
2021/06/23 01:35:16;;;;;;;20.05;5.80;;;;;;;18.12;79.56;95545.27;1737452;81;21019;-60
2021/06/23 01:37:44;;;;;;;12.47;5.15;;;;;;;18.09;79.31;95547.20;1738296;81;21030;-59
2021/06/23 01:40:12;;;;;;;16.80;5.37;;;;;;;17.94;78.93;95551.48;1738837;82;20990;-60
2021/06/23 01:42:39;;;;;;;14.53;5.40;;;;;;;17.79;79.39;95548.19;1737937;81;21552;-61
2021/06/23 01:45:08;;;;;;;17.27;5.10;;;;;;;17.67;80.15;95538.98;1736525;81;21042;-59
2021/06/23 01:47:35;;;;;;;10.53;4.62;;;;;;;17.60;80.79;95534.39;1737387;81;21067;-60
2021/06/23 01:50:04;;;;;;;15.93;5.42;;;;;;;17.53;81.04;95534.28;1737833;82;21148;-61
2021/06/23 01:52:33;;;;;;;11.68;5.22;;;;;;;17.62;81.39;95535.66;1737389;81;21037;-60
2021/06/23 01:55:00;;;;;;;17.32;5.03;;;;;;;17.64;81.07;95532.42;1714541;82;21063;-60
2021/06/23 01:57:28;;;;;;;15.15;4.95;;;;;;;17.62;80.63;95528.52;1739040;81;21085;-60
2021/06/23 01:59:57;;;;;;;18.32;5.30;;;;;;;17.64;80.76;95527.98;1716382;82;21112;-59
2021/06/23 02:02:29;;;;;;;18.40;6.30;;;;;;;17.64;80.63;95534.66;1723813;81;21549;-59
2021/06/23 02:05:07;;;;;;;13.25;5.10;;;;;;;17.69;80.41;95533.11;1735647;81;21521;-59
2021/06/23 02:07:58;;;;;;;14.33;5.65;;;;;;;17.70;80.27;95534.35;1736428;82;21507;-59
2021/06/23 02:11:12;;;;;;;9.95;4.92;;;;;;;17.74;80.31;95532.42;1735972;81;21066;-60
2021/06/23 02:14:17;;;;;;;10.50;4.95;;;;;;;17.82;80.00;95540.95;1739210;82;21017;-60
2021/06/23 02:16:56;;;;;;;14.13;5.97;;;;;;;17.77;79.80;95538.94;1738823;82;21034;-59
2021/06/23 02:19:25;;;;;;;13.08;5.33;;;;;;;17.62;80.48;95538.33;1738093;81;21014;-60
2021/06/23 02:22:01;;;;;;;12.70;5.58;;;;;;;17.57;80.31;95535.88;1720968;81;21074;-59
2021/06/23 02:24:30;;;;;;;14.18;5.20;;;;;;;17.49;80.47;95541.57;1714563;81;21029;-59
2021/06/23 02:26:58;;;;;;;12.90;5.62;;;;;;;17.55;80.76;95535.08;1733512;82;21511;-61
2021/06/23 02:29:27;;;;;;;14.03;5.62;;;;;;;17.55;80.52;95545.75;1738630;81;21506;-60
2021/06/23 02:31:55;;;;;;;12.63;5.35;;;;;;;17.60;80.75;95542.39;1738986;82;21025;-60
2021/06/23 02:34:25;;;;;;;20.52;5.28;;;;;;;17.64;80.57;95551.11;1738689;82;21045;-60
2021/06/23 02:36:53;;;;;;;16.35;6.60;;;;;;;17.62;80.12;95552.53;1735769;82;21059;-59
2021/06/23 02:39:21;;;;;;;15.48;5.10;;;;;;;17.67;80.28;95555.84;1715524;82;20986;-59
2021/06/23 02:41:48;;;;;;;12.50;5.20;;;;;;;17.69;79.85;95561.12;1738674;81;21017;-60
2021/06/23 02:44:15;;;;;;;12.73;5.03;;;;;;;17.56;80.12;95559.95;1738420;81;21075;-60
2021/06/23 02:46:43;;;;;;;16.25;7.10;;;;;;;17.51;80.49;95565.48;1735759;82;21002;-60
2021/06/23 02:49:15;;;;;;;92.15;57.00;;;;;;;17.45;80.38;95560.45;1737340;82;21019;-59
2021/06/23 02:51:44;;;;;;;29.82;13.40;;;;;;;17.48;80.53;95569.64;1738939;82;21048;-59
2021/06/23 02:54:12;;;;;;;21.65;10.60;;;;;;;17.43;80.75;95564.52;1734436;82;21031;-60
2021/06/23 02:56:47;;;;;;;14.55;6.50;;;;;;;17.52;80.82;95567.23;1724344;81;21090;-60
2021/06/23 02:59:14;;;;;;;14.18;6.83;;;;;;;17.52;80.66;95568.09;1737581;82;21009;-59
2021/06/23 03:01:43;;;;;;;14.28;5.25;;;;;;;17.57;80.73;95569.22;1736637;81;20999;-59
2021/06/23 03:04:12;;;;;;;13.03;5.03;;;;;;;17.51;80.65;95573.05;1735910;81;21025;-59
2021/06/23 03:06:46;;;;;;;13.10;4.83;;;;;;;17.57;80.90;95570.56;1736477;82;21045;-59
2021/06/23 03:09:13;;;;;;;12.98;4.65;;;;;;;17.56;81.09;95575.48;1736572;82;20999;-60
2021/06/23 03:11:48;;;;;;;17.17;5.95;;;;;;;17.50;81.01;95583.30;1737472;81;21029;-60
2021/06/23 03:14:16;;;;;;;18.65;6.28;;;;;;;17.49;80.65;95580.25;1734076;81;21019;-60
2021/06/23 03:16:45;;;;;;;18.10;5.22;;;;;;;17.53;80.63;95585.83;1735302;81;21027;-60
2021/06/23 03:19:14;;;;;;;12.65;5.25;;;;;;;17.51;81.17;95587.72;1738311;81;21009;-59
2021/06/23 03:21:40;;;;;;;14.40;5.12;;;;;;;17.48;81.86;95597.17;1741855;81;21084;-60
2021/06/23 03:24:07;;;;;;;13.85;5.12;;;;;;;17.46;82.28;95595.52;1745511;81;21069;-59
2021/06/23 03:26:34;;;;;;;15.32;6.33;;;;;;;17.50;81.90;95598.45;1723287;81;20998;-60
2021/06/23 03:29:28;;;;;;;16.27;7.00;;;;;;;17.53;82.01;95592.97;1745666;81;21559;-60
2021/06/23 03:31:56;;;;;;;16.47;6.40;;;;;;;17.62;81.94;95597.03;1737935;81;21071;-59
2021/06/23 03:34:24;;;;;;;16.35;6.47;;;;;;;17.68;81.67;95595.40;1742886;81;21021;-60
2021/06/23 03:36:55;;;;;;;12.35;5.37;;;;;;;17.67;82.02;95601.21;1735938;81;21114;-59
2021/06/23 03:39:22;;;;;;;18.25;6.28;;;;;;;17.68;82.02;95608.27;1746883;81;21432;-60
2021/06/23 03:41:50;;;;;;;19.42;6.83;;;;;;;17.70;81.79;95606.40;1739861;81;21039;-60
2021/06/23 03:44:17;;;;;;;17.98;6.95;;;;;;;17.73;82.04;95614.25;1739260;81;21062;-60
2021/06/23 03:46:44;;;;;;;13.68;6.75;;;;;;;17.79;82.29;95614.91;1739333;81;21001;-60
2021/06/23 03:49:11;;;;;;;12.35;6.72;;;;;;;17.85;82.15;95616.86;1746617;81;21019;-60
2021/06/23 03:51:39;;;;;;;15.03;6.33;;;;;;;17.96;81.93;95620.36;1717609;82;21501;-59
2021/06/23 03:54:07;;;;;;;14.40;6.17;;;;;;;18.01;82.14;95621.00;1750538;81;21003;-59
2021/06/23 03:56:34;;;;;;;14.43;4.95;;;;;;;18.05;82.17;95627.08;1741144;81;21002;-60
2021/06/23 03:59:02;;;;;;;16.80;6.65;;;;;;;18.07;81.74;95626.06;1721880;81;21146;-59
2021/06/23 04:01:29;;;;;;;12.30;4.85;;;;;;;18.10;81.71;95623.72;1745078;81;21022;-59
2021/06/23 04:04:06;;;;;;;13.70;4.40;;;;;;;18.20;81.76;95629.02;1738126;81;21034;-60
2021/06/23 04:06:43;;;;;;;13.53;5.15;;;;;;;18.29;81.48;95627.69;1756654;81;21042;-60
2021/06/23 04:09:11;;;;;;;22.93;5.80;;;;;;;18.42;82.44;95627.52;1737624;81;21006;-59
2021/06/23 04:11:40;;;;;;;13.95;5.70;;;;;;;18.53;81.96;95630.52;1745294;81;21029;-60
2021/06/23 04:14:06;;;;;;;18.10;6.20;;;;;;;18.71;81.83;95631.88;1751794;81;21476;-59
2021/06/23 04:16:33;;;;;;;14.70;5.47;;;;;;;18.83;81.59;95635.78;1745650;81;21006;-59
2021/06/23 04:19:00;;;;;;;16.65;5.65;;;;;;;18.91;81.61;95637.11;1734936;81;21028;-60
2021/06/23 04:21:27;;;;;;;15.85;5.97;;;;;;;19.10;81.71;95644.19;1739831;81;21066;-59
2021/06/23 04:23:55;;;;;;;19.48;6.05;;;;;;;19.26;81.11;95641.13;1741549;81;21037;-59
2021/06/23 04:26:22;;;;;;;16.40;5.55;;;;;;;19.42;80.82;95642.03;1738079;81;21074;-60
2021/06/23 04:28:50;;;;;;;17.10;6.30;;;;;;;19.60;80.12;95641.53;1746457;81;21062;-61
2021/06/23 04:31:17;;;;;;;16.95;5.72;;;;;;;19.75;79.86;95643.89;1739367;81;21845;-60
2021/06/23 04:33:44;;;;;;;19.67;6.20;;;;;;;19.91;79.20;95648.41;1742197;81;21029;-60
2021/06/23 04:36:12;;;;;;;16.60;6.15;;;;;;;19.94;78.54;95645.11;1739401;81;21030;-60
2021/06/23 04:38:39;;;;;;;15.20;5.55;;;;;;;20.01;78.65;95645.17;1748477;81;21057;-60
2021/06/23 04:41:06;;;;;;;16.17;5.72;;;;;;;20.15;78.60;95634.16;1742915;81;21017;-60
2021/06/23 04:43:35;;;;;;;19.82;6.40;;;;;;;20.38;78.59;95639.56;1742751;81;21011;-60
2021/06/23 04:46:02;;;;;;;15.80;6.33;;;;;;;20.52;78.18;95642.34;1746082;81;21009;-60
2021/06/23 04:48:30;;;;;;;16.25;5.45;;;;;;;20.66;77.45;95641.11;1738085;81;21018;-60
2021/06/23 04:50:57;;;;;;;23.70;6.92;;;;;;;20.75;77.10;95645.92;1746478;81;21018;-60
2021/06/23 04:53:26;;;;;;;18.30;6.00;;;;;;;20.81;76.64;95644.69;1749281;81;21026;-61
2021/06/23 04:55:57;;;;;;;18.27;7.10;;;;;;;20.88;76.35;95648.75;1744397;81;21023;-60
2021/06/23 04:58:24;;;;;;;24.55;7.17;;;;;;;20.95;76.04;95643.91;1760074;81;21015;-60
2021/06/23 05:00:53;;;;;;;20.20;7.30;;;;;;;21.03;76.31;95655.03;1744443;81;21026;-59
2021/06/23 05:03:21;;;;;;;19.45;8.03;;;;;;;21.10;76.00;95652.38;1738349;81;21065;-61
2021/06/23 05:05:48;;;;;;;20.80;6.95;;;;;;;21.15;75.99;95657.48;1743463;81;21615;-60
2021/06/23 05:08:15;;;;;;;20.60;7.33;;;;;;;21.18;75.85;95654.13;1765624;81;21050;-60
2021/06/23 05:10:42;;;;;;;24.75;8.45;;;;;;;21.27;76.06;95652.73;1739228;81;21041;-60
2021/06/23 05:13:09;;;;;;;23.05;7.87;;;;;;;21.38;76.35;95644.91;1714300;81;21024;-61
2021/06/23 05:15:35;;;;;;;18.40;8.40;;;;;;;21.54;76.22;95648.00;1737729;81;21060;-60
2021/06/23 05:18:04;;;;;;;28.52;9.50;;;;;;;21.68;75.99;95654.75;1739160;81;21015;-60
2021/06/23 05:20:30;;;;;;;22.45;10.15;;;;;;;21.79;75.53;95656.76;1734499;82;21031;-60
2021/06/23 05:22:57;;;;;;;28.35;9.48;;;;;;;21.88;75.40;95656.69;1738203;81;21030;-60
2021/06/23 05:25:24;;;;;;;34.58;9.75;;;;;;;21.97;75.22;95661.01;1744247;81;21528;-60
2021/06/23 05:27:50;;;;;;;31.17;10.72;;;;;;;22.08;74.92;95658.98;1742093;81;21023;-60
2021/06/23 05:30:19;;;;;;;27.73;12.40;;;;;;;22.15;74.28;95660.33;1747918;81;21036;-60
2021/06/23 05:32:45;;;;;;;32.63;11.68;;;;;;;22.24;74.18;95654.86;1739363;81;21018;-60
2021/06/23 05:35:13;;;;;;;32.33;10.63;;;;;;;22.36;73.94;95656.77;1744786;81;21046;-60
2021/06/23 05:37:40;;;;;;;31.75;9.00;;;;;;;22.50;73.72;95661.73;1749321;81;21133;-60
2021/06/23 05:40:08;;;;;;;28.07;8.43;;;;;;;22.64;73.62;95654.98;1745235;81;21065;-60
2021/06/23 05:42:35;;;;;;;30.02;9.35;;;;;;;22.80;73.53;95664.24;1748417;81;21038;-60
2021/06/23 05:45:02;;;;;;;28.23;8.20;;;;;;;22.94;73.51;95657.48;1748457;81;21017;-61
2021/06/23 05:47:29;;;;;;;26.93;7.62;;;;;;;23.09;72.93;95662.35;1754846;81;21011;-61
2021/06/23 05:49:55;;;;;;;23.73;7.25;;;;;;;23.22;71.95;95670.46;1738930;81;20998;-60
2021/06/23 05:52:22;;;;;;;18.90;6.75;;;;;;;23.35;72.49;95666.45;1736894;81;21513;-60
2021/06/23 05:54:49;;;;;;;21.17;6.92;;;;;;;23.51;71.96;95666.66;1753789;81;21492;-60
2021/06/23 05:57:15;;;;;;;32.10;7.40;;;;;;;23.69;71.92;95663.66;1737834;81;21059;-61
2021/06/23 05:59:42;;;;;;;22.30;6.58;;;;;;;23.87;71.71;95667.79;1737732;81;21076;-60
2021/06/23 06:02:09;;;;;;;21.52;5.97;;;;;;;24.05;70.77;95666.97;1740861;81;21033;-60
2021/06/23 06:04:35;;;;;;;22.95;6.85;;;;;;;24.23;71.08;95663.45;1746509;81;21499;-61
2021/06/23 06:07:03;;;;;;;24.57;6.80;;;;;;;24.40;70.29;95660.40;1742286;81;21086;-60
2021/06/23 06:09:30;;;;;;;19.10;6.37;;;;;;;24.54;69.99;95663.45;1742849;81;21521;-60
2021/06/23 06:11:56;;;;;;;27.27;6.87;;;;;;;24.66;69.06;95662.20;1748219;81;21026;-60
2021/06/23 06:14:23;;;;;;;25.02;7.03;;;;;;;24.73;68.37;95662.13;1745082;81;21009;-59
2021/06/23 06:16:50;;;;;;;22.82;7.37;;;;;;;24.88;68.47;95669.58;1744970;81;21551;-60
2021/06/23 06:19:16;;;;;;;23.40;6.83;;;;;;;25.01;68.34;95667.69;1743996;81;21015;-60
2021/06/23 06:21:43;;;;;;;35.08;7.70;;;;;;;25.14;67.85;95668.97;1739061;81;21017;-60
2021/06/23 06:24:10;;;;;;;21.70;6.97;;;;;;;25.26;67.52;95672.13;1739393;81;21507;-59
2021/06/23 06:26:36;;;;;;;28.60;8.18;;;;;;;25.34;66.29;95671.55;1746472;81;21053;-60
2021/06/23 06:29:03;;;;;;;36.35;8.60;;;;;;;25.42;66.40;95669.97;1738051;81;21021;-61
2021/06/23 06:31:29;;;;;;;41.42;8.35;;;;;;;25.48;65.06;95674.92;1739142;81;21064;-60
2021/06/23 06:33:56;;;;;;;48.87;9.08;;;;;;;25.57;65.76;95670.64;1743966;81;21052;-61
2021/06/23 06:36:23;;;;;;;55.12;9.10;;;;;;;25.69;65.69;95668.84;1744182;81;21046;-59
2021/06/23 06:38:49;;;;;;;53.13;8.63;;;;;;;25.81;65.90;95673.30;1741968;81;21027;-60
2021/06/23 06:41:16;;;;;;;49.90;9.50;;;;;;;25.93;65.92;95672.87;1741780;81;21536;-60
2021/06/23 06:43:42;;;;;;;49.85;8.98;;;;;;;26.04;65.53;95673.37;1739556;81;21048;-59
2021/06/23 06:46:09;;;;;;;52.93;9.25;;;;;;;26.17;65.51;95673.25;1720243;81;21019;-59
2021/06/23 06:48:36;;;;;;;38.98;8.78;;;;;;;26.28;65.49;95673.24;1742172;81;21064;-60
2021/06/23 06:51:03;;;;;;;41.58;8.73;;;;;;;26.38;64.48;95685.55;1736784;81;21058;-59
2021/06/23 06:53:31;;;;;;;37.63;8.90;;;;;;;26.48;64.91;95673.00;1738520;81;21022;-59
2021/06/23 06:55:58;;;;;;;28.42;9.18;;;;;;;26.61;64.76;95673.78;1743450;81;21025;-59
2021/06/23 06:58:24;;;;;;;29.67;8.78;;;;;;;26.73;63.54;95669.20;1741337;81;21436;-60
2021/06/23 07:00:51;;;;;;;32.25;9.15;;;;;;;26.85;63.75;95668.19;1764706;81;20995;-59
2021/06/23 07:03:17;;;;;;;24.57;7.95;;;;;;;27.00;62.59;95679.61;1755481;81;20990;-59
2021/06/23 07:05:44;;;;;;;31.25;7.25;;;;;;;27.14;62.49;95673.03;1759967;81;21573;-59
2021/06/23 07:08:10;;;;;;;29.23;7.75;;;;;;;27.25;61.20;95674.39;1745301;81;20987;-59
2021/06/23 07:10:37;;;;;;;27.42;6.90;;;;;;;27.36;60.80;95677.55;1741503;81;20990;-59
2021/06/23 07:13:04;;;;;;;30.08;6.95;;;;;;;27.51;58.04;95676.75;1743560;81;20987;-59
2021/06/23 07:15:30;;;;;;;27.58;6.30;;;;;;;27.65;57.55;95672.37;1740053;81;21062;-59
2021/06/23 07:17:58;;;;;;;20.72;5.67;;;;;;;27.80;58.09;95676.48;1736063;81;21078;-59
2021/06/23 07:20:25;;;;;;;39.70;7.25;;;;;;;27.93;56.77;95679.03;1745581;81;21005;-59
2021/06/23 07:22:51;;;;;;;22.73;6.15;;;;;;;28.06;55.59;95678.81;1742526;81;21001;-60
2021/06/23 07:25:18;;;;;;;28.73;6.05;;;;;;;28.10;52.05;95672.14;1739213;81;21021;-60
2021/06/23 07:27:44;;;;;;;33.38;5.47;;;;;;;28.22;52.41;95679.69;1752126;80;21041;-65
2021/06/23 07:30:12;;;;;;;27.20;5.67;;;;;;;28.32;51.21;95675.16;1765290;80;21009;-61
2021/06/23 07:32:50;;;;;;;23.67;4.97;;;;;;;28.50;51.67;95675.45;1766517;80;21010;-62
2021/06/23 07:38:07;;;;;;;25.37;5.30;;;;;;;28.81;51.00;95668.62;1735897;81;21547;-63
2021/06/23 07:40:51;;;;;;;28.15;5.25;;;;;;;28.99;50.85;95663.38;1703736;83;21581;-62
2021/06/23 07:43:13;;;;;;;29.90;5.37;;;;;;;29.10;48.58;95666.84;1718574;83;21074;-62
2021/06/23 07:45:46;;;;;;;29.72;5.00;;;;;;;29.18;48.21;95670.72;1770603;80;21501;-62
2021/06/23 07:48:11;;;;;;;23.15;4.83;;;;;;;29.24;47.11;95667.45;1771092;78;21025;-61
2021/06/23 07:50:49;;;;;;;27.95;5.42;;;;;;;29.27;45.31;95673.95;1797183;79;21049;-60
2021/06/23 07:53:15;;;;;;;23.55;4.72;;;;;;;29.30;42.89;95675.88;1798726;79;21578;-60
2021/06/23 07:55:48;;;;;;;27.20;5.05;;;;;;;29.43;45.47;95673.39;1732503;82;21511;-60
2021/06/23 08:09:21;;;;;;;28.07;4.75;;;;;;;29.81;40.23;95692.98;1782974;80;21002;-60
2021/06/23 08:11:46;;;;;;;23.12;4.60;;;;;;;29.88;39.96;95687.80;1764580;80;21052;-61
2021/06/23 08:14:11;;;;;;;29.55;5.08;;;;;;;29.83;39.39;95691.45;1763033;80;21070;-60
2021/06/23 08:16:38;;;;;;;39.48;6.05;;;;;;;29.83;41.71;95695.53;1777087;80;21050;-60
2021/06/23 08:19:05;;;;;;;30.90;5.25;;;;;;;29.92;42.22;95692.81;1764083;80;21010;-60
2021/06/23 08:21:32;;;;;;;25.92;4.90;;;;;;;30.08;42.52;95700.88;1759782;80;21002;-61
2021/06/23 08:23:58;;;;;;;35.50;5.22;;;;;;;30.18;41.75;95690.83;1774426;80;21058;-60
2021/06/23 08:26:25;;;;;;;39.42;5.65;;;;;;;30.29;42.23;95697.51;1786902;80;21082;-61
2021/06/23 08:28:51;;;;;;;32.38;5.50;;;;;;;30.44;42.63;95694.30;1786200;80;21001;-61
2021/06/23 08:31:18;;;;;;;39.95;5.83;;;;;;;30.53;41.21;95694.27;1783804;80;21031;-62
2021/06/23 08:33:44;;;;;;;36.13;5.65;;;;;;;30.53;41.90;95692.91;1780873;80;21009;-62
2021/06/23 08:36:11;;;;;;;30.90;5.37;;;;;;;30.41;41.38;95699.02;1753060;81;21536;-64
2021/06/23 08:38:38;;;;;;;23.50;5.05;;;;;;;30.43;39.71;95704.84;1746933;81;21065;-65
2021/06/23 08:41:05;;;;;;;26.97;4.70;;;;;;;30.55;40.67;95703.66;1747000;81;21006;-60
2021/06/23 08:43:32;;;;;;;28.57;5.40;;;;;;;30.71;40.78;95699.78;1736886;81;21056;-60
2021/06/23 08:46:02;;;;;;;30.20;4.53;;;;;;;30.93;41.04;95692.27;1743103;81;21581;-60
2021/06/23 08:48:31;;;;;;;30.70;4.85;;;;;;;31.09;38.96;95701.14;1759189;80;20994;-60
2021/06/23 08:51:05;;;;;;;31.50;4.95;;;;;;;31.28;38.87;95690.12;1768217;80;21113;-60
2021/06/23 08:53:34;;;;;;;28.10;5.00;;;;;;;31.38;37.80;95695.52;1791633;80;21539;-60
2021/06/23 08:56:02;;;;;;;23.95;4.58;;;;;;;31.33;38.01;95687.80;1743286;81;21544;-60
2021/06/23 08:58:30;;;;;;;23.40;4.50;;;;;;;31.27;38.17;95693.84;1748632;82;21077;-60
2021/06/23 09:00:57;;;;;;;20.23;3.92;;;;;;;30.82;36.81;95700.15;1738554;81;21047;-60
2021/06/23 09:03:25;;;;;;;19.27;4.40;;;;;;;30.56;38.89;95699.41;1768314;80;21058;-60
2021/06/23 09:05:55;;;;;;;23.62;4.55;;;;;;;30.78;37.67;95696.81;1787870;80;21019;-60
2021/06/23 09:08:37;;;;;;;19.77;4.25;;;;;;;31.13;37.83;95694.39;1788391;80;21022;-60
2021/06/23 09:11:19;;;;;;;26.42;4.45;;;;;;;31.33;35.61;95695.98;1788313;80;21036;-60
2021/06/23 09:13:46;;;;;;;35.00;4.63;;;;;;;31.37;36.47;95695.15;1774266;80;20994;-60
2021/06/23 09:16:12;;;;;;;28.17;3.98;;;;;;;31.47;36.05;95700.06;1787242;80;21031;-61
2021/06/23 09:18:41;;;;;;;30.32;5.10;;;;;;;31.75;36.49;95695.89;1776103;80;21005;-60
2021/06/23 09:21:19;;;;;;;23.18;4.95;;;;;;;31.87;33.54;95698.73;1769664;80;21488;-60
2021/06/23 09:23:58;;;;;;;22.98;4.35;;;;;;;32.01;34.35;95699.58;1783202;80;21069;-60
2021/06/23 09:26:35;;;;;;;22.93;4.10;;;;;;;32.10;35.09;95701.38;1775042;80;20987;-60
2021/06/23 09:29:17;;;;;;;22.22;4.50;;;;;;;32.30;34.86;95702.00;1782632;80;20990;-60
2021/06/23 09:32:04;;;;;;;24.57;4.58;;;;;;;32.43;33.97;95701.61;1764153;80;21598;-60
2021/06/23 09:34:43;;;;;;;23.52;4.28;;;;;;;32.47;33.28;95698.88;1763591;80;20994;-60
2021/06/23 09:37:34;;;;;;;22.05;4.28;;;;;;;32.50;32.99;95697.73;1777118;80;20987;-60
2021/06/23 09:40:20;;;;;;;20.32;4.55;;;;;;;32.62;32.33;95696.45;1765291;80;20986;-60
2021/06/23 09:43:00;;;;;;;25.45;4.12;;;;;;;32.76;32.13;95689.02;1787434;80;21040;-60
2021/06/23 09:45:26;;;;;;;21.52;4.53;;;;;;;32.92;32.52;95691.48;1767809;80;21113;-60
2021/06/23 09:48:06;;;;;;;19.23;3.65;;;;;;;33.06;32.56;95697.70;1789229;80;21082;-60
2021/06/23 09:50:40;;;;;;;18.12;3.75;;;;;;;33.07;31.08;95700.80;1774798;80;21121;-60
2021/06/23 09:53:17;;;;;;;18.03;3.90;;;;;;;33.12;31.22;95695.69;1743333;81;21081;-60
2021/06/23 09:55:48;;;;;;;20.30;3.77;;;;;;;33.03;29.00;95694.45;1740477;81;21041;-60
2021/06/23 09:58:25;;;;;;;22.67;3.20;;;;;;;33.16;29.90;95697.57;1744993;82;21053;-60
2021/06/23 10:01:10;;;;;;;19.62;3.60;;;;;;;33.22;28.35;95695.56;1743877;81;21034;-61
2021/06/23 10:03:59;;;;;;;16.35;3.77;;;;;;;33.01;27.06;95690.47;1741241;81;21002;-60
2021/06/23 10:06:44;;;;;;;24.43;3.87;;;;;;;33.07;27.82;95691.23;1754047;81;21046;-60
2021/06/23 10:09:25;;;;;;;14.20;3.70;;;;;;;32.68;27.14;95703.98;1772406;80;21102;-60
2021/06/23 10:11:57;;;;;;;12.78;3.52;;;;;;;32.33;28.07;95699.46;1767720;80;21021;-60
2021/06/23 10:14:27;;;;;;;22.67;3.75;;;;;;;32.58;28.81;95695.56;1734476;81;21067;-59
2021/06/23 10:16:54;;;;;;;22.42;3.65;;;;;;;32.90;29.06;95696.25;1735049;81;21050;-60
2021/06/23 10:19:22;;;;;;;19.40;3.85;;;;;;;33.17;28.83;95692.47;1730743;81;21007;-60
2021/06/23 10:21:54;;;;;;;26.35;4.40;;;;;;;33.47;30.06;95689.65;1781337;80;21512;-60
2021/06/23 10:24:21;;;;;;;22.48;3.77;;;;;;;33.63;29.26;95689.36;1777466;80;21029;-60
2021/06/23 10:26:52;;;;;;;26.80;3.67;;;;;;;33.67;29.07;95683.88;1737268;81;21035;-59
2021/06/23 10:29:32;;;;;;;25.68;4.17;;;;;;;33.78;29.12;95684.41;1741337;81;21570;-60
2021/06/23 10:32:00;;;;;;;19.35;3.45;;;;;;;33.92;29.15;95681.53;1732829;81;21106;-60
2021/06/23 10:34:27;;;;;;;19.15;3.70;;;;;;;34.04;26.36;95673.28;1773351;80;21534;-60
2021/06/23 10:36:56;;;;;;;19.32;3.70;;;;;;;34.07;26.28;95676.26;1769078;80;21002;-60
2021/06/23 10:39:33;;;;;;;21.62;3.83;;;;;;;34.10;26.95;95678.64;1774275;80;21022;-60
2021/06/23 10:42:07;;;;;;;27.20;3.15;;;;;;;34.21;27.08;95674.17;1771654;80;21538;-60
2021/06/23 10:44:42;;;;;;;25.55;4.12;;;;;;;34.36;26.35;95670.22;1773957;80;21033;-60
2021/06/23 10:47:28;;;;;;;24.75;3.47;;;;;;;34.39;26.65;95673.13;1765773;80;20998;-61
2021/06/23 10:49:55;;;;;;;18.23;3.65;;;;;;;34.43;27.04;95666.28;1741687;81;21027;-63
2021/06/23 10:52:27;;;;;;;21.95;3.42;;;;;;;34.62;26.72;95673.27;1741026;81;21026;-61
2021/06/23 10:55:01;;;;;;;18.95;3.72;;;;;;;34.59;28.07;95670.89;1781517;80;21013;-60
2021/06/23 10:57:48;;;;;;;24.18;3.65;;;;;;;34.68;27.55;95668.48;1743137;81;21054;-60
2021/06/23 11:00:26;;;;;;;27.90;3.95;;;;;;;34.77;27.75;95669.30;1732049;81;21018;-60
2021/06/23 11:03:05;;;;;;;20.48;4.05;;;;;;;34.80;26.66;95670.30;1735986;81;21042;-61
2021/06/23 11:05:48;;;;;;;18.55;4.03;;;;;;;34.74;25.86;95675.98;1732976;81;21042;-60
2021/06/23 11:08:34;;;;;;;24.25;3.90;;;;;;;34.74;27.46;95671.02;1758516;81;21543;-60
2021/06/23 11:11:10;;;;;;;22.27;4.00;;;;;;;34.84;26.94;95673.04;1772226;81;21015;-60
2021/06/23 11:13:39;;;;;;;27.85;3.92;;;;;;;34.85;27.04;95679.73;1775465;80;21534;-60
2021/06/23 11:16:07;;;;;;;25.17;4.55;;;;;;;34.44;27.28;95681.16;1739514;81;21541;-60
2021/06/23 11:18:39;;;;;;;23.02;4.95;;;;;;;34.43;27.85;95677.23;1734917;81;21053;-60
2021/06/23 11:21:18;;;;;;;;;;;;;;;34.71;28.81;95675.49;1743741;81;21025;-60
2021/06/23 11:24:03;;;;;;;19.12;3.90;;;;;;;35.04;28.83;95679.81;1742380;81;20440;-60
2021/06/23 11:26:38;;;;;;;25.20;4.12;;;;;;;35.08;28.16;95684.44;1737086;81;21030;-60
2021/06/23 11:29:15;;;;;;;21.70;4.08;;;;;;;35.10;27.27;95677.78;1741017;81;21565;-60
2021/06/23 11:31:55;;;;;;;28.38;4.28;;;;;;;35.19;28.34;95678.58;1741034;81;21014;-60
2021/06/23 11:34:43;;;;;;;22.17;4.12;;;;;;;35.44;27.67;95677.08;1737081;81;21461;-60
2021/06/23 11:37:16;;;;;;;19.85;3.95;;;;;;;35.07;26.24;95679.45;1731035;81;21511;-60
2021/06/23 11:39:45;;;;;;;20.43;4.65;;;;;;;34.38;27.94;95685.13;1740839;81;21008;-60
2021/06/23 11:42:13;;;;;;;20.95;3.85;;;;;;;33.92;29.17;95687.00;1748744;81;21086;-60
2021/06/23 11:44:41;;;;;;;21.42;4.58;;;;;;;33.99;29.71;95683.05;1754079;81;20999;-60
2021/06/23 11:47:08;;;;;;;29.98;4.90;;;;;;;34.38;30.38;95681.02;1768959;80;21016;-60
2021/06/23 11:49:36;;;;;;;35.65;5.05;;;;;;;34.70;29.94;95677.35;1785609;80;20999;-60
2021/06/23 11:52:06;;;;;;;28.85;6.05;;;;;;;34.88;28.43;95683.48;1735806;81;21046;-60